Time;durP1;ratioP1;P1;durP2;ratioP2;P2;SDS_P1;SDS_P2;PMS_P1;PMS_P2;Temp;Humidity;BMP_temperature;BMP_pressure;BME280_temperature;BME280_humidity;BME280_pressure;Samples;Min_cycle;Max_cycle;Signal;HPM_P1;HPM_P2
2023/07/21 00:00:28;;;;;;;1.93;1.70;;;;;;;;;;5078485;28;20471;-62
2023/07/21 00:02:55;;;;;;;1.50;1.40;;;;;;;;;;5079107;28;20742;-62
2023/07/21 00:05:24;;;;;;;2.50;1.90;;;;;;;;;;5078332;28;21061;-61
2023/07/21 00:07:50;;;;;;;2.60;1.50;;;;;;;;;;5079227;28;20454;-62
2023/07/21 00:10:17;;;;;;;1.73;1.23;;;;;;;;;;5079372;28;20444;-62
2023/07/21 00:12:46;;;;;;;2.30;1.70;;;;;;;;;;5079038;28;20444;-62
2023/07/21 00:15:15;;;;;;;1.60;1.50;;;;;;;;;;5078686;28;20866;-62
2023/07/21 00:17:42;;;;;;;2.10;1.90;;;;;;;;;;5079027;28;20472;-62
2023/07/21 00:20:11;;;;;;;2.20;1.53;;;;;;;;;;5078839;28;20443;-61
2023/07/21 00:22:39;;;;;;;1.97;1.57;;;;;;;;;;5078485;28;20462;-61
2023/07/21 00:25:06;;;;;;;2.80;1.63;;;;;;;;;;5073603;28;20456;-61
2023/07/21 00:27:35;;;;;;;1.87;1.43;;;;;;;;;;5078601;28;20440;-62
2023/07/21 00:30:01;;;;;;;1.63;1.20;;;;;;;;;;5078469;28;20828;-61
2023/07/21 00:32:31;;;;;;;1.90;1.70;;;;;;;;;;5078293;28;20551;-61
2023/07/21 00:34:57;;;;;;;2.47;1.53;;;;;;;;;;5081526;28;20582;-61
2023/07/21 00:37:24;;;;;;;2.60;1.50;;;;;;;;;;5082147;28;20507;-61
2023/07/21 00:39:52;;;;;;;2.07;1.60;;;;;;;;;;5082344;28;20447;-62
2023/07/21 00:42:18;;;;;;;2.90;1.67;;;;;;;;;;5082305;28;20455;-61
2023/07/21 00:44:44;;;;;;;1.63;1.47;;;;;;;;;;5081531;28;20480;-61
2023/07/21 00:47:11;;;;;;;2.20;1.40;;;;;;;;;;5082695;28;20880;-61
2023/07/21 00:49:37;;;;;;;3.43;1.43;;;;;;;;;;5082142;28;20457;-61
2023/07/21 00:52:04;;;;;;;1.97;1.40;;;;;;;;;;5081915;28;20487;-61
2023/07/21 00:54:32;;;;;;;1.63;1.53;;;;;;;;;;5082185;28;20515;-61
2023/07/21 00:57:00;;;;;;;1.93;1.40;;;;;;;;;;5081657;28;21084;-61
2023/07/21 00:59:27;;;;;;;1.90;1.50;;;;;;;;;;5074127;28;20448;-61
2023/07/21 01:01:53;;;;;;;2.73;1.53;;;;;;;;;;5081780;28;20491;-61
2023/07/21 01:04:20;;;;;;;3.80;1.40;;;;;;;;;;5075032;28;20456;-61
2023/07/21 01:06:47;;;;;;;1.63;1.43;;;;;;;;;;5074202;28;21018;-61
2023/07/21 01:09:14;;;;;;;2.40;1.50;;;;;;;;;;5081989;28;20535;-61
2023/07/21 01:11:40;;;;;;;1.80;1.53;;;;;;;;;;5081765;28;20456;-61
2023/07/21 01:14:08;;;;;;;1.70;1.60;;;;;;;;;;5081367;28;20491;-61
2023/07/21 01:16:37;;;;;;;2.10;1.37;;;;;;;;;;5070022;28;20534;-61
2023/07/21 01:19:04;;;;;;;3.03;1.70;;;;;;;;;;5081566;28;20444;-61
2023/07/21 01:21:35;;;;;;;1.97;1.63;;;;;;;;;;5081533;28;20484;-61
2023/07/21 01:24:06;;;;;;;4.60;1.70;;;;;;;;;;5081442;28;21301;-61
2023/07/21 01:26:35;;;;;;;3.50;1.60;;;;;;;;;;5081990;28;20480;-61
2023/07/21 01:29:02;;;;;;;3.50;1.67;;;;;;;;;;5080306;28;20448;-61
2023/07/21 01:31:28;;;;;;;1.60;1.43;;;;;;;;;;5081067;28;20494;-61
2023/07/21 01:33:56;;;;;;;1.80;1.67;;;;;;;;;;5081168;28;20475;-61
2023/07/21 01:36:22;;;;;;;3.50;1.40;;;;;;;;;;5081046;28;20555;-61
2023/07/21 01:38:49;;;;;;;1.63;1.43;;;;;;;;;;5081474;28;20452;-61
2023/07/21 01:41:16;;;;;;;1.73;1.60;;;;;;;;;;5081267;28;20482;-61
2023/07/21 01:43:46;;;;;;;2.13;1.90;;;;;;;;;;5080827;28;20448;-62
2023/07/21 01:46:12;;;;;;;1.87;1.60;;;;;;;;;;5080674;28;20505;-62
2023/07/21 01:48:39;;;;;;;2.43;1.73;;;;;;;;;;5081203;28;20448;-61
2023/07/21 01:51:05;;;;;;;3.73;1.53;;;;;;;;;;5081271;28;20524;-61
2023/07/21 01:53:34;;;;;;;3.83;1.97;;;;;;;;;;5078809;28;20452;-61
2023/07/21 01:56:02;;;;;;;1.53;1.23;;;;;;;;;;5076501;28;20452;-61
2023/07/21 01:58:29;;;;;;;3.93;2.17;;;;;;;;;;5080969;28;20505;-62
2023/07/21 02:00:58;;;;;;;2.30;1.77;;;;;;;;;;5080695;28;20478;-61
2023/07/21 02:03:25;;;;;;;1.70;1.53;;;;;;;;;;5080674;28;20455;-61
2023/07/21 02:05:51;;;;;;;1.93;1.60;;;;;;;;;;5079799;28;21016;-61
2023/07/21 02:08:20;;;;;;;3.70;1.63;;;;;;;;;;5080185;28;20478;-61
2023/07/21 02:10:47;;;;;;;1.70;1.60;;;;;;;;;;5074328;28;20509;-61
2023/07/21 02:13:14;;;;;;;2.17;1.83;;;;;;;;;;5080372;28;20452;-61
2023/07/21 02:15:41;;;;;;;1.73;1.50;;;;;;;;;;5080062;28;21000;-61
2023/07/21 02:18:09;;;;;;;3.13;2.03;;;;;;;;;;5080344;28;20475;-61
2023/07/21 02:20:35;;;;;;;2.10;1.90;;;;;;;;;;5080401;28;20459;-62
2023/07/21 02:23:01;;;;;;;4.13;2.03;;;;;;;;;;5080019;28;20487;-62
2023/07/21 02:25:28;;;;;;;3.53;1.93;;;;;;;;;;5080863;28;20475;-61
2023/07/21 02:27:54;;;;;;;2.03;1.53;;;;;;;;;;5080121;28;20451;-61
2023/07/21 02:30:21;;;;;;;3.13;2.33;;;;;;;;;;5079876;28;20566;-61
2023/07/21 02:32:47;;;;;;;3.40;2.00;;;;;;;;;;5079889;28;20458;-63
2023/07/21 02:35:15;;;;;;;1.90;1.80;;;;;;;;;;5079687;28;20552;-61
2023/07/21 02:37:41;;;;;;;5.03;2.00;;;;;;;;;;5079320;28;20542;-61
2023/07/21 02:40:09;;;;;;;2.97;1.80;;;;;;;;;;5080072;28;20440;-62
2023/07/21 02:42:36;;;;;;;2.93;1.93;;;;;;;;;;5079805;28;20466;-62
2023/07/21 02:45:03;;;;;;;6.10;2.70;;;;;;;;;;5079534;28;20452;-61
2023/07/21 02:47:30;;;;;;;2.70;2.10;;;;;;;;;;5080106;28;20468;-61
2023/07/21 02:49:56;;;;;;;2.50;2.30;;;;;;;;;;5079525;28;20547;-62
2023/07/21 02:52:27;;;;;;;2.77;2.50;;;;;;;;;;5079903;28;20622;-61
2023/07/21 02:54:53;;;;;;;2.90;2.43;;;;;;;;;;5079813;28;20455;-61
2023/07/21 02:57:20;;;;;;;2.47;2.27;;;;;;;;;;5079432;28;20488;-61
2023/07/21 02:59:47;;;;;;;3.00;2.27;;;;;;;;;;5079192;28;20513;-62
2023/07/21 03:02:13;;;;;;;3.33;2.20;;;;;;;;;;5079860;28;20447;-61
2023/07/21 03:04:42;;;;;;;2.53;2.10;;;;;;;;;;5079457;28;20452;-62
2023/07/21 03:07:09;;;;;;;2.80;2.13;;;;;;;;;;5078923;28;20448;-61
2023/07/21 03:09:37;;;;;;;2.70;2.10;;;;;;;;;;5079747;28;20447;-62
2023/07/21 03:12:03;;;;;;;2.73;2.07;;;;;;;;;;5079725;28;20500;-61
2023/07/21 03:14:30;;;;;;;3.90;3.17;;;;;;;;;;5078675;28;20996;-61
2023/07/21 03:16:56;;;;;;;2.60;2.40;;;;;;;;;;5079682;28;20480;-61
2023/07/21 03:19:22;;;;;;;2.87;2.10;;;;;;;;;;5079396;28;20864;-61
2023/07/21 03:21:49;;;;;;;2.53;1.97;;;;;;;;;;5079448;28;20467;-61
2023/07/21 03:24:16;;;;;;;3.07;2.43;;;;;;;;;;5079334;28;20597;-61
2023/07/21 03:26:44;;;;;;;2.83;2.47;;;;;;;;;;5079473;28;20479;-61
2023/07/21 03:29:10;;;;;;;3.07;2.40;;;;;;;;;;5078296;28;20459;-61
2023/07/21 03:31:36;;;;;;;2.23;2.03;;;;;;;;;;5079646;28;20855;-61
2023/07/21 03:34:03;;;;;;;3.07;2.30;;;;;;;;;;5079190;28;20508;-61
2023/07/21 03:36:29;;;;;;;2.90;2.63;;;;;;;;;;5078782;28;20964;-61
2023/07/21 03:38:56;;;;;;;3.90;2.60;;;;;;;;;;5079566;28;20475;-61
2023/07/21 03:41:22;;;;;;;3.13;2.40;;;;;;;;;;5079093;28;20467;-61
2023/07/21 03:43:50;;;;;;;3.10;2.40;;;;;;;;;;5079272;28;20507;-62
2023/07/21 03:46:16;;;;;;;4.00;2.73;;;;;;;;;;5078186;28;20568;-61
2023/07/21 03:48:44;;;;;;;2.87;2.60;;;;;;;;;;5079373;28;20492;-61
2023/07/21 03:51:11;;;;;;;2.90;2.20;;;;;;;;;;5079370;28;20614;-61
2023/07/21 03:53:37;;;;;;;2.87;2.40;;;;;;;;;;5079064;28;20479;-62
2023/07/21 03:56:04;;;;;;;4.70;2.90;;;;;;;;;;5079425;28;20482;-61
2023/07/21 03:58:30;;;;;;;2.60;2.07;;;;;;;;;;5079214;28;20546;-61
2023/07/21 04:00:59;;;;;;;3.47;1.93;;;;;;;;;;5078862;28;20547;-61
2023/07/21 04:03:25;;;;;;;4.40;2.30;;;;;;;;;;5079226;28;20479;-61
2023/07/21 04:05:52;;;;;;;3.30;2.20;;;;;;;;;;5078007;28;20538;-62
2023/07/21 04:08:19;;;;;;;2.80;2.00;;;;;;;;;;5079891;28;20454;-62
2023/07/21 04:10:45;;;;;;;2.60;2.40;;;;;;;;;;5083294;28;20451;-62
2023/07/21 04:13:12;;;;;;;3.40;1.93;;;;;;;;;;5082618;28;20448;-61
2023/07/21 04:15:39;;;;;;;2.60;1.80;;;;;;;;;;5082376;28;20968;-62
2023/07/21 04:18:07;;;;;;;2.47;2.00;;;;;;;;;;5081386;28;20543;-61
2023/07/21 04:20:33;;;;;;;2.57;2.07;;;;;;;;;;5080932;28;20440;-61
2023/07/21 04:22:59;;;;;;;5.93;2.13;;;;;;;;;;5081468;28;20498;-62
2023/07/21 04:25:26;;;;;;;2.40;2.20;;;;;;;;;;5082080;28;20467;-61
2023/07/21 04:27:54;;;;;;;3.00;2.00;;;;;;;;;;5081142;28;20461;-61
2023/07/21 04:30:20;;;;;;;2.60;1.90;;;;;;;;;;5081432;28;20517;-61
2023/07/21 04:32:47;;;;;;;2.40;2.20;;;;;;;;;;5081931;28;20520;-61
2023/07/21 04:35:16;;;;;;;2.87;2.57;;;;;;;;;;5081047;28;20472;-62
2023/07/21 04:37:42;;;;;;;3.13;2.60;;;;;;;;;;5081178;28;20487;-62
2023/07/21 04:40:11;;;;;;;4.20;2.60;;;;;;;;;;5081724;28;20467;-62
2023/07/21 04:42:37;;;;;;;3.63;2.70;;;;;;;;;;5080262;28;20457;-61
2023/07/21 04:45:04;;;;;;;4.03;2.50;;;;;;;;;;5081118;28;20516;-62
2023/07/21 04:47:30;;;;;;;6.20;2.47;;;;;;;;;;5081768;28;20444;-61
2023/07/21 04:49:57;;;;;;;4.30;2.60;;;;;;;;;;5080671;28;20515;-62
2023/07/21 04:52:25;;;;;;;2.93;2.50;;;;;;;;;;5081495;28;20466;-61
2023/07/21 04:54:51;;;;;;;4.73;2.87;;;;;;;;;;5081687;28;20475;-61
2023/07/21 04:57:18;;;;;;;5.77;3.13;;;;;;;;;;5081121;28;20494;-61
2023/07/21 04:59:45;;;;;;;5.87;2.70;;;;;;;;;;5081173;28;20456;-61
2023/07/21 05:02:11;;;;;;;4.90;2.30;;;;;;;;;;5080854;28;20468;-61
2023/07/21 05:04:38;;;;;;;2.90;2.27;;;;;;;;;;5079799;28;20488;-62
2023/07/21 05:07:05;;;;;;;3.80;2.77;;;;;;;;;;5076956;28;20479;-61
2023/07/21 05:09:33;;;;;;;3.77;2.70;;;;;;;;;;5081597;28;20452;-61
2023/07/21 05:11:59;;;;;;;5.20;2.70;;;;;;;;;;5078573;28;20472;-61
2023/07/21 05:14:26;;;;;;;4.40;3.50;;;;;;;;;;5080954;28;20471;-61
2023/07/21 05:16:52;;;;;;;5.93;2.87;;;;;;;;;;5081305;28;20508;-61
2023/07/21 05:19:18;;;;;;;3.70;2.87;;;;;;;;;;5079930;28;20494;-62
2023/07/21 05:21:45;;;;;;;8.50;3.60;;;;;;;;;;5081135;28;20612;-62
2023/07/21 05:24:12;;;;;;;4.07;2.90;;;;;;;;;;5080949;28;20946;-62
2023/07/21 05:26:40;;;;;;;3.30;2.90;;;;;;;;;;5080764;28;20484;-62
2023/07/21 05:29:06;;;;;;;2.90;2.70;;;;;;;;;;5080008;28;20472;-62
2023/07/21 05:31:33;;;;;;;4.43;3.10;;;;;;;;;;5079582;28;20485;-61
2023/07/21 05:34:00;;;;;;;3.23;2.93;;;;;;;;;;5072879;28;21132;-62
2023/07/21 05:36:27;;;;;;;3.63;2.97;;;;;;;;;;5080203;28;20487;-62
2023/07/21 05:38:53;;;;;;;3.87;3.10;;;;;;;;;;5077351;28;20508;-62
2023/07/21 05:41:20;;;;;;;3.53;3.23;;;;;;;;;;5075549;28;20463;-62
2023/07/21 05:43:47;;;;;;;3.77;3.27;;;;;;;;;;5080330;28;20555;-62
2023/07/21 05:46:14;;;;;;;4.23;3.83;;;;;;;;;;5080322;28;20472;-62
2023/07/21 05:48:41;;;;;;;4.70;4.30;;;;;;;;;;5079767;28;20487;-62
2023/07/21 05:51:12;;;;;;;4.87;3.70;;;;;;;;;;5080683;28;20447;-61
2023/07/21 05:53:38;;;;;;;6.60;4.30;;;;;;;;;;5076012;28;20528;-62
2023/07/21 05:56:06;;;;;;;7.33;4.23;;;;;;;;;;5079824;28;20494;-61
2023/07/21 05:58:34;;;;;;;6.10;4.40;;;;;;;;;;5079818;28;20563;-62
2023/07/21 06:01:02;;;;;;;4.63;4.23;;;;;;;;;;5079924;28;20463;-62
2023/07/21 06:03:28;;;;;;;6.60;4.20;;;;;;;;;;5076487;28;20464;-62
2023/07/21 06:05:54;;;;;;;6.20;5.10;;;;;;;;;;5068780;28;20440;-62
2023/07/21 06:08:21;;;;;;;7.17;4.63;;;;;;;;;;5071239;28;20693;-62
2023/07/21 06:10:47;;;;;;;4.30;4.00;;;;;;;;;;5079353;28;20488;-61
2023/07/21 06:13:14;;;;;;;4.50;4.10;;;;;;;;;;5079234;28;20793;-61
2023/07/21 06:15:40;;;;;;;4.60;4.20;;;;;;;;;;5079361;28;20452;-62
2023/07/21 06:18:08;;;;;;;7.80;4.03;;;;;;;;;;5078820;28;20828;-62
2023/07/21 06:20:34;;;;;;;4.37;3.97;;;;;;;;;;5079476;28;20454;-62
2023/07/21 06:23:01;;;;;;;4.00;3.37;;;;;;;;;;5079712;28;20451;-62
2023/07/21 06:25:28;;;;;;;4.63;4.17;;;;;;;;;;5079276;28;20444;-62
2023/07/21 06:27:54;;;;;;;4.80;4.10;;;;;;;;;;5071742;28;20452;-63
2023/07/21 06:30:20;;;;;;;5.60;4.00;;;;;;;;;;5078480;28;20451;-62
2023/07/21 06:32:47;;;;;;;4.30;2.93;;;;;;;;;;5079009;28;20902;-63
2023/07/21 06:35:15;;;;;;;3.70;3.40;;;;;;;;;;5070036;28;20513;-63
2023/07/21 06:37:41;;;;;;;3.73;3.43;;;;;;;;;;5074085;28;20730;-63
2023/07/21 06:40:09;;;;;;;4.03;3.10;;;;;;;;;;5079486;28;20452;-63
2023/07/21 06:42:35;;;;;;;4.60;3.40;;;;;;;;;;5078141;28;20562;-63
2023/07/21 06:45:02;;;;;;;3.93;3.53;;;;;;;;;;5078711;28;20459;-63
2023/07/21 06:47:28;;;;;;;3.83;3.37;;;;;;;;;;5079079;28;20444;-63
2023/07/21 06:49:54;;;;;;;3.63;3.03;;;;;;;;;;5078815;28;20941;-62
2023/07/21 06:52:24;;;;;;;3.67;3.23;;;;;;;;;;5078807;28;20479;-62
2023/07/21 06:54:50;;;;;;;2.87;2.67;;;;;;;;;;5079099;28;20478;-62
2023/07/21 06:57:17;;;;;;;4.30;3.90;;;;;;;;;;5078925;28;20467;-62
2023/07/21 06:59:43;;;;;;;3.70;3.40;;;;;;;;;;5078582;28;20514;-62
2023/07/21 07:02:10;;;;;;;3.70;3.40;;;;;;;;;;5078900;28;20547;-62
2023/07/21 07:04:37;;;;;;;4.40;3.40;;;;;;;;;;5078507;28;20452;-63
2023/07/21 07:07:04;;;;;;;3.40;3.00;;;;;;;;;;5078170;28;20486;-63
2023/07/21 07:09:32;;;;;;;5.57;3.37;;;;;;;;;;5079042;28;20508;-62
2023/07/21 07:11:58;;;;;;;6.50;4.03;;;;;;;;;;5078220;28;20484;-62
2023/07/21 07:14:25;;;;;;;4.33;3.10;;;;;;;;;;5078095;28;21334;-63
2023/07/21 07:16:51;;;;;;;4.00;3.60;;;;;;;;;;5078505;28;20448;-63
2023/07/21 07:19:19;;;;;;;3.80;3.40;;;;;;;;;;5078149;28;20515;-62
2023/07/21 07:21:47;;;;;;;3.80;3.33;;;;;;;;;;5066625;28;20467;-63
2023/07/21 07:24:14;;;;;;;4.27;3.50;;;;;;;;;;5071661;28;20472;-62
2023/07/21 07:26:41;;;;;;;7.27;3.80;;;;;;;;;;5078521;28;20492;-62
2023/07/21 07:29:08;;;;;;;4.23;3.50;;;;;;;;;;5077761;28;20462;-62
2023/07/21 07:31:36;;;;;;;5.43;3.60;;;;;;;;;;5076077;28;20464;-62
2023/07/21 07:34:03;;;;;;;5.17;3.67;;;;;;;;;;5077345;28;20891;-62
2023/07/21 07:36:29;;;;;;;5.00;4.37;;;;;;;;;;5078026;28;20499;-62
2023/07/21 07:38:56;;;;;;;4.67;3.67;;;;;;;;;;5078483;28;20511;-62
2023/07/21 07:41:22;;;;;;;5.50;3.67;;;;;;;;;;5078096;28;20490;-62
2023/07/21 07:43:50;;;;;;;3.70;3.30;;;;;;;;;;5083094;28;20460;-63
2023/07/21 07:46:17;;;;;;;6.43;3.90;;;;;;;;;;5084892;28;20494;-63
2023/07/21 07:48:44;;;;;;;4.00;3.60;;;;;;;;;;5084750;28;20443;-62
2023/07/21 07:51:11;;;;;;;5.73;3.70;;;;;;;;;;5085434;28;20486;-62
2023/07/21 07:53:37;;;;;;;5.27;4.17;;;;;;;;;;5084503;28;20967;-63
2023/07/21 07:56:04;;;;;;;4.67;4.10;;;;;;;;;;5084567;28;20515;-62
2023/07/21 07:58:31;;;;;;;4.63;3.80;;;;;;;;;;5078427;28;21115;-62
2023/07/21 08:00:59;;;;;;;5.40;4.50;;;;;;;;;;5084724;28;20487;-62
2023/07/21 08:03:26;;;;;;;4.30;3.90;;;;;;;;;;5083839;28;20467;-63
2023/07/21 08:05:52;;;;;;;5.30;3.80;;;;;;;;;;5076826;28;20470;-63
2023/07/21 08:08:20;;;;;;;4.13;3.80;;;;;;;;;;5083155;28;20990;-62
2023/07/21 08:10:46;;;;;;;4.47;4.03;;;;;;;;;;5084371;28;20451;-63
2023/07/21 08:13:13;;;;;;;5.23;3.50;;;;;;;;;;5084902;28;20490;-63
2023/07/21 08:15:40;;;;;;;4.50;4.10;;;;;;;;;;5084488;28;20525;-63
2023/07/21 08:18:07;;;;;;;4.33;4.00;;;;;;;;;;5084000;28;21138;-64
2023/07/21 08:20:36;;;;;;;5.23;3.83;;;;;;;;;;5084665;28;20455;-63
2023/07/21 08:23:03;;;;;;;4.70;4.30;;;;;;;;;;5084528;28;20491;-62
2023/07/21 08:25:29;;;;;;;4.87;4.47;;;;;;;;;;5084126;28;20459;-62
2023/07/21 08:27:58;;;;;;;3.73;3.43;;;;;;;;;;5082450;28;20448;-62
2023/07/21 08:30:25;;;;;;;4.67;4.27;;;;;;;;;;5084476;28;20454;-62
2023/07/21 08:32:51;;;;;;;6.30;3.73;;;;;;;;;;5084039;28;20483;-62
2023/07/21 08:35:19;;;;;;;5.30;4.80;;;;;;;;;;5078701;28;20569;-62
2023/07/21 08:37:45;;;;;;;4.03;3.63;;;;;;;;;;5080026;28;20733;-62
2023/07/21 08:40:12;;;;;;;4.93;4.10;;;;;;;;;;5073076;28;20445;-63
2023/07/21 08:42:39;;;;;;;5.53;4.10;;;;;;;;;;5081899;28;20455;-63
2023/07/21 08:45:06;;;;;;;4.93;3.90;;;;;;;;;;5077961;28;20555;-63
2023/07/21 08:47:33;;;;;;;5.00;4.60;;;;;;;;;;5084139;28;20504;-63
2023/07/21 08:49:59;;;;;;;4.07;3.47;;;;;;;;;;5084653;28;21016;-63
2023/07/21 08:52:27;;;;;;;4.10;3.70;;;;;;;;;;5083132;28;20483;-63
2023/07/21 08:54:54;;;;;;;4.43;3.97;;;;;;;;;;5067382;28;20506;-63
2023/07/21 08:57:21;;;;;;;4.03;3.70;;;;;;;;;;5070346;28;20450;-63
2023/07/21 08:59:49;;;;;;;5.03;3.73;;;;;;;;;;5080814;28;20483;-62
2023/07/21 09:02:15;;;;;;;5.23;4.70;;;;;;;;;;5080604;28;20535;-63
2023/07/21 09:04:43;;;;;;;4.90;4.37;;;;;;;;;;5081054;28;20456;-63
2023/07/21 09:07:11;;;;;;;5.00;4.40;;;;;;;;;;5080900;28;20454;-63
2023/07/21 09:09:38;;;;;;;5.03;4.40;;;;;;;;;;5081007;28;20448;-63
2023/07/21 09:12:07;;;;;;;4.07;3.77;;;;;;;;;;5081325;28;20447;-62
2023/07/21 09:14:36;;;;;;;4.40;4.00;;;;;;;;;;5080488;28;20451;-63
2023/07/21 09:17:03;;;;;;;4.50;2.93;;;;;;;;;;5080675;28;20507;-62
2023/07/21 09:19:30;;;;;;;3.50;3.20;;;;;;;;;;5081390;28;20514;-62
2023/07/21 09:21:56;;;;;;;5.27;3.60;;;;;;;;;;5081034;28;20471;-63
2023/07/21 09:24:23;;;;;;;4.07;3.37;;;;;;;;;;5080322;28;20455;-63
2023/07/21 09:26:50;;;;;;;3.23;2.67;;;;;;;;;;5081879;28;20444;-63
2023/07/21 09:29:18;;;;;;;3.70;3.40;;;;;;;;;;5080621;28;20471;-63
2023/07/21 09:31:47;;;;;;;6.13;3.97;;;;;;;;;;5081285;28;20440;-63
2023/07/21 09:34:13;;;;;;;4.30;3.73;;;;;;;;;;5081342;28;20525;-63
2023/07/21 09:36:43;;;;;;;4.70;4.30;;;;;;;;;;5080979;28;20480;-62
2023/07/21 09:39:14;;;;;;;5.20;4.77;;;;;;;;;;5080889;28;20486;-62
2023/07/21 09:41:41;;;;;;;3.90;3.47;;;;;;;;;;5081560;28;20452;-63
2023/07/21 09:44:09;;;;;;;4.70;3.33;;;;;;;;;;5081574;28;20519;-63
2023/07/21 09:46:35;;;;;;;4.13;3.37;;;;;;;;;;5080424;28;20515;-63
2023/07/21 09:49:02;;;;;;;3.97;3.23;;;;;;;;;;5080990;28;21175;-63
2023/07/21 09:51:29;;;;;;;4.80;3.30;;;;;;;;;;5081369;28;20448;-63
2023/07/21 09:53:58;;;;;;;3.50;3.20;;;;;;;;;;5080108;28;20455;-63
2023/07/21 09:56:25;;;;;;;3.37;3.07;;;;;;;;;;5081736;28;20448;-63
2023/07/21 09:58:52;;;;;;;3.93;3.30;;;;;;;;;;5080812;28;20512;-63
2023/07/21 10:01:20;;;;;;;4.50;4.10;;;;;;;;;;5080090;28;20486;-63
2023/07/21 10:03:46;;;;;;;3.77;3.47;;;;;;;;;;5080902;28;20452;-63
2023/07/21 10:06:14;;;;;;;3.50;3.20;;;;;;;;;;5079011;28;20470;-63
2023/07/21 10:08:41;;;;;;;3.97;3.67;;;;;;;;;;5080725;28;20448;-62
2023/07/21 10:11:08;;;;;;;4.50;3.00;;;;;;;;;;5081098;28;20479;-62
2023/07/21 10:13:40;;;;;;;5.83;4.73;;;;;;;;;;5080492;28;20737;-63
2023/07/21 10:16:07;;;;;;;4.30;3.90;;;;;;;;;;5079819;28;20456;-62
2023/07/21 10:18:36;;;;;;;5.97;3.60;;;;;;;;;;5080421;28;20471;-62
2023/07/21 10:21:03;;;;;;;3.10;2.60;;;;;;;;;;5080709;28;20494;-62
2023/07/21 10:23:33;;;;;;;4.43;3.40;;;;;;;;;;5079742;28;20523;-62
2023/07/21 10:26:03;;;;;;;3.70;3.40;;;;;;;;;;5081216;28;20557;-62
2023/07/21 10:28:34;;;;;;;4.87;3.77;;;;;;;;;;5080431;28;20452;-62
2023/07/21 10:31:19;;;;;;;3.60;3.30;;;;;;;;;;5078949;28;20478;-62
2023/07/21 10:34:01;;;;;;;3.93;3.53;;;;;;;;;;5080644;28;20483;-62
2023/07/21 10:36:39;;;;;;;3.53;3.23;;;;;;;;;;5080323;28;20472;-62
2023/07/21 10:39:07;;;;;;;4.57;3.53;;;;;;;;;;5065239;28;20476;-62
2023/07/21 10:41:34;;;;;;;5.53;3.20;;;;;;;;;;5079696;28;20456;-62
2023/07/21 10:44:00;;;;;;;3.83;3.47;;;;;;;;;;5080719;28;20491;-62
2023/07/21 10:46:27;;;;;;;4.63;4.00;;;;;;;;;;5079385;28;20463;-62
2023/07/21 10:48:53;;;;;;;9.53;4.63;;;;;;;;;;5080656;28;20455;-62
2023/07/21 10:51:21;;;;;;;5.77;4.50;;;;;;;;;;5080338;28;20486;-62
2023/07/21 10:53:47;;;;;;;5.10;4.60;;;;;;;;;;5079409;28;20449;-62
2023/07/21 10:56:14;;;;;;;6.63;4.90;;;;;;;;;;5080507;28;20544;-62
2023/07/21 10:58:40;;;;;;;6.83;6.13;;;;;;;;;;5078907;28;20512;-62
2023/07/21 11:01:07;;;;;;;6.17;5.67;;;;;;;;;;5078813;28;20448;-62
2023/07/21 11:03:33;;;;;;;6.50;5.90;;;;;;;;;;5079756;28;20498;-62
2023/07/21 11:06:00;;;;;;;8.70;6.40;;;;;;;;;;5079556;28;20547;-62
2023/07/21 11:08:28;;;;;;;7.13;6.40;;;;;;;;;;5079796;28;20513;-62
2023/07/21 11:10:55;;;;;;;7.10;5.47;;;;;;;;;;5080283;28;20444;-62
2023/07/21 11:13:21;;;;;;;6.13;5.53;;;;;;;;;;5079998;28;20474;-62
2023/07/21 11:15:51;;;;;;;10.47;6.77;;;;;;;;;;5068370;28;20551;-62
2023/07/21 11:18:18;;;;;;;7.30;6.13;;;;;;;;;;5070816;28;20500;-62
2023/07/21 11:20:48;;;;;;;7.60;6.90;;;;;;;;;;5071397;28;20483;-62
2023/07/21 11:23:15;;;;;;;6.80;6.20;;;;;;;;;;5079051;28;21043;-62
2023/07/21 11:25:42;;;;;;;7.57;6.07;;;;;;;;;;5079803;28;20523;-62
2023/07/21 11:28:11;;;;;;;7.33;6.60;;;;;;;;;;5080173;28;20479;-62
2023/07/21 11:30:37;;;;;;;8.33;7.50;;;;;;;;;;5078880;28;20456;-62
2023/07/21 11:33:10;;;;;;;7.00;6.30;;;;;;;;;;5079476;28;21066;-62
2023/07/21 11:35:37;;;;;;;7.27;6.57;;;;;;;;;;5073049;28;20537;-62
2023/07/21 11:38:03;;;;;;;6.33;4.47;;;;;;;;;;5079164;28;20448;-62
2023/07/21 11:40:33;;;;;;;5.70;5.20;;;;;;;;;;5079753;28;20488;-62
2023/07/21 11:43:05;;;;;;;7.23;4.23;;;;;;;;;;5079088;28;20484;-62
2023/07/21 11:45:36;;;;;;;7.77;5.07;;;;;;;;;;5078104;28;20979;-62
2023/07/21 11:48:10;;;;;;;4.77;4.30;;;;;;;;;;5079582;28;20866;-62
2023/07/21 11:50:37;;;;;;;5.40;4.63;;;;;;;;;;5078793;28;20529;-63
2023/07/21 11:53:05;;;;;;;5.57;3.43;;;;;;;;;;5079071;28;20476;-62
2023/07/21 11:55:32;;;;;;;4.00;3.63;;;;;;;;;;5076128;28;20452;-62
2023/07/21 11:57:58;;;;;;;5.50;4.10;;;;;;;;;;5079110;28;20501;-62
2023/07/21 12:00:27;;;;;;;3.60;3.30;;;;;;;;;;5071676;28;20887;-62
2023/07/21 12:02:56;;;;;;;4.00;3.57;;;;;;;;;;5079156;28;20456;-63
2023/07/21 12:05:24;;;;;;;8.90;3.90;;;;;;;;;;5079055;28;20463;-62
2023/07/21 12:07:52;;;;;;;4.27;3.87;;;;;;;;;;5078805;28;20472;-63
2023/07/21 12:10:18;;;;;;;5.27;3.53;;;;;;;;;;5079636;28;20451;-63
2023/07/21 12:12:45;;;;;;;5.20;3.90;;;;;;;;;;5079469;28;20448;-62
2023/07/21 12:15:12;;;;;;;4.13;3.73;;;;;;;;;;5077857;28;20467;-63
2023/07/21 12:17:40;;;;;;;4.83;4.43;;;;;;;;;;5079259;28;20443;-63
2023/07/21 12:20:11;;;;;;;5.90;4.80;;;;;;;;;;5079341;28;20523;-62
2023/07/21 12:22:38;;;;;;;6.47;5.00;;;;;;;;;;5078772;28;20810;-62
2023/07/21 12:25:05;;;;;;;5.30;4.80;;;;;;;;;;5078285;28;21012;-62
2023/07/21 12:27:31;;;;;;;7.43;5.57;;;;;;;;;;5079507;28;20474;-62
2023/07/21 12:29:58;;;;;;;5.30;4.80;;;;;;;;;;5079825;28;20452;-62
2023/07/21 12:32:24;;;;;;;5.40;5.00;;;;;;;;;;5082823;28;20440;-62
2023/07/21 12:34:52;;;;;;;6.40;5.30;;;;;;;;;;5082261;28;20477;-63
2023/07/21 12:37:19;;;;;;;5.20;4.70;;;;;;;;;;5081595;28;20443;-63
2023/07/21 12:39:47;;;;;;;5.10;4.60;;;;;;;;;;5082444;28;21054;-63
2023/07/21 12:42:13;;;;;;;5.17;4.70;;;;;;;;;;5082710;28;20443;-63
2023/07/21 12:44:39;;;;;;;7.13;4.33;;;;;;;;;;5080959;28;20906;-63
2023/07/21 12:47:06;;;;;;;5.03;3.83;;;;;;;;;;5083301;28;20470;-63
2023/07/21 12:49:33;;;;;;;4.83;3.57;;;;;;;;;;5082777;28;20451;-63
2023/07/21 12:52:01;;;;;;;3.40;3.10;;;;;;;;;;5080991;28;20829;-62
2023/07/21 12:54:27;;;;;;;5.73;4.50;;;;;;;;;;5081382;28;20585;-62
2023/07/21 12:56:54;;;;;;;5.13;4.70;;;;;;;;;;5073404;28;20448;-62
2023/07/21 12:59:20;;;;;;;7.37;6.47;;;;;;;;;;5068283;28;20448;-62
2023/07/21 13:01:47;;;;;;;6.20;5.60;;;;;;;;;;5080360;28;20471;-62
2023/07/21 13:04:15;;;;;;;7.13;5.77;;;;;;;;;;5081003;28;20547;-62
2023/07/21 13:06:42;;;;;;;6.93;5.33;;;;;;;;;;5074961;28;20448;-62
2023/07/21 13:09:10;;;;;;;6.40;5.27;;;;;;;;;;5081410;28;20521;-62
2023/07/21 13:11:37;;;;;;;5.47;4.97;;;;;;;;;;5081757;28;20444;-62
2023/07/21 13:14:03;;;;;;;5.60;4.97;;;;;;;;;;5079429;28;20452;-62
2023/07/21 13:16:30;;;;;;;6.60;4.80;;;;;;;;;;5080688;28;20505;-62
2023/07/21 13:18:57;;;;;;;7.40;4.93;;;;;;;;;;5080617;28;20469;-62
2023/07/21 13:21:23;;;;;;;5.10;4.60;;;;;;;;;;5080490;28;20517;-62
2023/07/21 13:23:50;;;;;;;5.53;4.13;;;;;;;;;;5081165;28;20480;-62
2023/07/21 13:26:18;;;;;;;3.80;3.37;;;;;;;;;;5081431;28;20483;-62
2023/07/21 13:28:45;;;;;;;3.27;2.97;;;;;;;;;;5080494;28;20454;-62
2023/07/21 13:31:11;;;;;;;5.13;2.87;;;;;;;;;;5080463;28;20452;-62
2023/07/21 13:33:38;;;;;;;3.37;2.67;;;;;;;;;;5081201;28;20521;-62
2023/07/21 13:36:05;;;;;;;4.47;3.67;;;;;;;;;;5079035;28;20491;-62
2023/07/21 13:38:31;;;;;;;4.07;3.23;;;;;;;;;;5081044;28;20468;-63
2023/07/21 13:41:00;;;;;;;5.23;4.00;;;;;;;;;;5080067;28;20532;-62
2023/07/21 13:43:28;;;;;;;5.80;5.20;;;;;;;;;;5080083;28;20451;-62
2023/07/21 13:45:55;;;;;;;12.80;5.77;;;;;;;;;;5080194;28;20466;-62
2023/07/21 13:48:22;;;;;;;7.63;6.17;;;;;;;;;;5080531;28;20444;-62
2023/07/21 13:50:49;;;;;;;12.07;6.23;;;;;;;;;;5067522;28;20448;-62
2023/07/21 13:53:15;;;;;;;8.40;7.17;;;;;;;;;;5080554;28;20497;-62
2023/07/21 13:55:42;;;;;;;7.10;5.63;;;;;;;;;;5067973;28;20523;-62
2023/07/21 13:58:08;;;;;;;8.50;5.97;;;;;;;;;;5079748;28;20443;-62
2023/07/21 14:00:36;;;;;;;8.47;7.50;;;;;;;;;;5079461;28;20522;-62
2023/07/21 14:03:03;;;;;;;8.53;6.60;;;;;;;;;;5080363;28;20452;-62
2023/07/21 14:05:29;;;;;;;9.93;6.30;;;;;;;;;;5074003;28;20560;-61
2023/07/21 14:07:56;;;;;;;10.83;7.20;;;;;;;;;;5079294;28;20448;-61
2023/07/21 14:10:22;;;;;;;8.93;7.80;;;;;;;;;;5080186;28;20472;-62
2023/07/21 14:12:49;;;;;;;14.97;7.60;;;;;;;;;;5075290;28;20478;-61
2023/07/21 14:15:15;;;;;;;10.30;7.00;;;;;;;;;;5079249;28;20541;-62
2023/07/21 14:17:43;;;;;;;8.27;6.30;;;;;;;;;;5079725;28;21050;-62
2023/07/21 14:20:12;;;;;;;5.93;5.33;;;;;;;;;;5079457;28;20484;-62
2023/07/21 14:22:39;;;;;;;6.47;5.80;;;;;;;;;;5079794;28;20518;-61
2023/07/21 14:25:07;;;;;;;7.37;5.73;;;;;;;;;;5079536;28;20471;-62
2023/07/21 14:27:33;;;;;;;6.43;5.83;;;;;;;;;;5078948;28;20490;-61
2023/07/21 14:29:59;;;;;;;7.00;6.13;;;;;;;;;;5079340;28;20830;-61
2023/07/21 14:32:26;;;;;;;6.20;5.60;;;;;;;;;;5080079;28;20980;-62
2023/07/21 14:34:54;;;;;;;7.87;5.90;;;;;;;;;;5078979;28;20473;-61
2023/07/21 14:37:21;;;;;;;5.70;5.10;;;;;;;;;;5079177;28;20447;-62
2023/07/21 14:39:47;;;;;;;5.83;5.33;;;;;;;;;;5079315;28;20452;-61
2023/07/21 14:42:14;;;;;;;11.73;6.20;;;;;;;;;;5065922;28;20898;-62